Time;durP1;ratioP1;P1;durP2;ratioP2;P2;SDS_P1;SDS_P2;PMS_P1;PMS_P2;Temp;Humidity;BMP_temperature;BMP_pressure;BME280_temperature;BME280_humidity;BME280_pressure;Samples;Min_cycle;Max_cycle;Signal;HPM_P1;HPM_P2
2021/09/30 00:02:03;;;;;;;7.60;1.70;;;;;;;11.08;72.43;102441.38;5050248;28;20059;-59
2021/09/30 00:04:29;;;;;;;12.23;1.60;;;;;;;11.19;72.17;102446.47;5050390;28;20075;-60
2021/09/30 00:06:54;;;;;;;8.10;2.33;;;;;;;11.22;71.71;102440.22;5050578;28;20021;-59
2021/09/30 00:09:19;;;;;;;7.13;1.70;;;;;;;11.16;72.46;102449.16;5050503;28;20092;-58
2021/09/30 00:11:48;;;;;;;9.10;1.42;;;;;;;11.15;72.58;102447.41;5049498;28;20099;-62
2021/09/30 00:14:24;;;;;;;6.78;1.60;;;;;;;11.17;72.79;102448.25;5050572;28;20029;-59
2021/09/30 00:17:18;;;;;;;9.80;2.00;;;;;;;11.13;73.02;102455.41;5053031;28;20041;-59
2021/09/30 00:39:37;;;;;;;7.72;1.80;;;;;;;11.18;71.54;102465.91;5033828;28;20029;-59
2021/09/30 00:46:59;;;;;;;8.32;1.58;;;;;;;11.08;73.03;102469.66;5053535;28;20044;-58
2021/09/30 00:52:16;;;;;;;5.30;1.30;;;;;;;11.19;71.75;102465.00;5053574;28;20024;-59
2021/09/30 01:21:09;;;;;;;9.93;2.10;;;;;;;11.18;72.14;102475.63;5052183;28;20142;-61
2021/09/30 03:00:14;;;;;;;6.55;1.60;;;;;;;10.84;72.24;102487.78;4988726;28;20132;-64
2021/09/30 03:02:43;;;;;;;5.25;1.38;;;;;;;10.81;72.31;102501.13;4988969;28;20042;-59
2021/09/30 03:05:12;;;;;;;9.95;1.73;;;;;;;10.77;72.49;102500.31;4988358;28;20082;-62
2021/09/30 03:07:39;;;;;;;7.97;1.60;;;;;;;10.73;72.74;102495.06;4988781;28;20045;-62
2021/09/30 03:10:05;;;;;;;7.53;2.00;;;;;;;10.70;73.10;102492.50;5018379;28;20045;-63
2021/09/30 03:12:33;;;;;;;9.52;2.53;;;;;;;10.68;73.06;102484.59;5050695;28;20139;-61
2021/09/30 03:15:54;;;;;;;12.07;1.98;;;;;;;10.77;72.49;102492.34;5050687;28;20029;-60
2021/09/30 03:17:50;;;;;;;8.88;1.70;;;;;;;10.79;72.44;102498.50;5047059;28;20033;-65
2021/09/30 03:23:02;;;;;;;10.38;1.80;;;;;;;10.86;70.92;102493.94;5050676;28;20048;-59
2021/09/30 03:25:28;;;;;;;6.18;1.80;;;;;;;10.93;70.59;102505.31;5050374;28;20028;-59
2021/09/30 03:27:55;;;;;;;5.75;1.70;;;;;;;10.92;69.77;102507.09;5049574;28;20100;-67
2021/09/30 03:30:23;;;;;;;8.48;2.17;;;;;;;10.91;70.08;102501.81;5050241;28;20456;-61
2021/09/30 03:32:50;;;;;;;5.07;1.90;;;;;;;10.89;70.24;102499.19;5049465;28;20021;-60
2021/09/30 03:35:15;;;;;;;6.13;1.80;;;;;;;10.84;70.60;102506.34;5049466;28;20053;-62
2021/09/30 03:37:40;;;;;;;8.30;1.92;;;;;;;10.80;70.71;102516.13;5049788;28;20032;-60
2021/09/30 03:40:07;;;;;;;5.80;1.67;;;;;;;10.79;70.74;102522.34;5050635;28;20085;-60
2021/09/30 03:42:32;;;;;;;10.68;2.28;;;;;;;10.74;70.82;102520.69;5048755;28;20481;-59
2021/09/30 03:44:57;;;;;;;8.20;2.08;;;;;;;10.71;71.11;102520.75;5049562;28;20076;-61
2021/09/30 03:47:23;;;;;;;7.97;1.80;;;;;;;10.70;71.29;102533.09;5050324;28;20025;-61
2021/09/30 03:49:49;;;;;;;10.02;1.75;;;;;;;10.69;70.69;102515.47;5049830;28;20101;-60
2021/09/30 03:52:32;;;;;;;6.15;1.70;;;;;;;10.68;70.79;102531.38;5049109;28;20025;-61
2021/09/30 04:00:25;;;;;;;7.68;1.80;;;;;;;10.59;70.38;102530.66;5049560;28;20184;-62
2021/09/30 04:02:50;;;;;;;15.43;2.50;;;;;;;10.50;71.28;102536.13;5049135;28;20115;-61
2021/09/30 04:05:15;;;;;;;9.10;2.00;;;;;;;10.46;70.93;102534.41;5048567;28;20033;-60
2021/09/30 04:07:41;;;;;;;8.45;1.67;;;;;;;10.47;70.54;102531.75;5050226;28;20039;-59
2021/09/30 04:10:07;;;;;;;6.53;1.52;;;;;;;10.51;70.61;102532.56;5049192;28;20111;-65
2021/09/30 04:12:32;;;;;;;8.55;1.80;;;;;;;10.52;70.66;102536.97;5049592;28;20418;-60
2021/09/30 04:14:57;;;;;;;7.22;1.80;;;;;;;10.53;71.24;102537.84;5049367;28;20040;-62
2021/09/30 04:17:23;;;;;;;5.78;1.95;;;;;;;10.62;70.79;102541.19;5049827;28;20029;-61
2021/09/30 04:19:48;;;;;;;9.00;2.45;;;;;;;10.71;70.36;102548.09;5049672;28;20033;-61
2021/09/30 04:22:13;;;;;;;10.23;1.80;;;;;;;10.77;69.62;102542.69;5050352;28;20047;-60
2021/09/30 04:24:41;;;;;;;5.32;1.60;;;;;;;10.79;69.96;102542.66;5048672;28;20489;-63
2021/09/30 04:27:08;;;;;;;9.57;1.92;;;;;;;10.84;69.34;102551.41;5049636;28;20096;-59
2021/09/30 04:29:33;;;;;;;9.48;2.08;;;;;;;10.93;68.86;102555.66;5050486;28;20124;-66
2021/09/30 04:31:58;;;;;;;6.68;1.38;;;;;;;10.94;69.00;102555.63;5050236;28;20033;-65
2021/09/30 04:34:25;;;;;;;7.28;1.70;;;;;;;11.01;68.40;102555.50;5049332;28;20160;-59
2021/09/30 04:36:50;;;;;;;4.50;1.60;;;;;;;11.07;67.87;102558.06;5047774;28;20047;-61
2021/09/30 04:39:16;;;;;;;10.07;2.00;;;;;;;11.09;67.66;102553.59;5049953;28;20028;-60
2021/09/30 04:41:45;;;;;;;9.63;2.00;;;;;;;11.09;67.70;102551.81;5049887;28;20083;-63
2021/09/30 04:44:14;;;;;;;11.60;1.80;;;;;;;11.07;67.60;102558.06;5049924;28;20029;-60
2021/09/30 04:46:41;;;;;;;9.48;1.90;;;;;;;11.04;68.00;102555.47;5049725;28;20024;-60
2021/09/30 04:49:07;;;;;;;9.90;2.35;;;;;;;11.05;68.08;102562.50;5050138;28;20033;-65
2021/09/30 04:51:32;;;;;;;9.70;1.80;;;;;;;11.07;68.29;102550.97;5049776;28;20025;-61
2021/09/30 04:53:58;;;;;;;7.40;1.75;;;;;;;11.03;68.54;102559.88;5049466;28;20487;-62
2021/09/30 04:56:23;;;;;;;12.80;2.47;;;;;;;11.09;68.20;102557.13;5049163;28;20376;-62
2021/09/30 04:58:48;;;;;;;10.93;2.08;;;;;;;11.08;68.14;102565.97;5049758;28;20033;-66
2021/09/30 05:01:15;;;;;;;8.65;1.92;;;;;;;11.05;68.38;102554.53;5051717;28;20029;-62
2021/09/30 05:03:40;;;;;;;13.27;2.13;;;;;;;11.04;68.37;102553.69;5053848;28;20482;-65
2021/09/30 05:06:05;;;;;;;13.40;1.75;;;;;;;11.01;69.06;102566.13;5052784;28;20121;-66
2021/09/30 05:08:34;;;;;;;11.23;2.65;;;;;;;10.95;68.99;102570.63;5052618;28;20138;-59
2021/09/30 05:11:02;;;;;;;6.25;1.90;;;;;;;10.92;68.37;102556.56;5054336;28;20029;-60
2021/09/30 05:13:37;;;;;;;9.88;2.10;;;;;;;10.87;69.04;102564.63;5054122;28;20081;-61
2021/09/30 05:16:05;;;;;;;8.20;1.73;;;;;;;10.79;69.83;102567.41;5041827;28;20021;-61
2021/09/30 05:18:30;;;;;;;7.60;2.00;;;;;;;10.73;70.00;102561.31;5052143;28;20028;-58
2021/09/30 05:20:55;;;;;;;5.68;1.70;;;;;;;10.62;70.98;102559.72;5052959;28;20021;-62
2021/09/30 05:23:22;;;;;;;10.07;1.77;;;;;;;10.59;70.35;102558.94;5050428;28;20453;-58
2021/09/30 05:25:48;;;;;;;9.57;2.00;;;;;;;10.59;70.24;102558.94;5052335;28;20386;-58
2021/09/30 05:28:13;;;;;;;13.00;2.10;;;;;;;10.55;70.87;102567.81;5052910;28;20025;-57
2021/09/30 05:30:38;;;;;;;9.07;1.77;;;;;;;10.48;71.62;102562.63;5052911;28;20097;-63
2021/09/30 05:33:04;;;;;;;6.85;1.60;;;;;;;10.45;71.92;102561.81;5053712;28;20028;-60
2021/09/30 05:35:30;;;;;;;12.70;1.92;;;;;;;10.46;70.93;102553.84;5052798;28;20037;-65
2021/09/30 05:37:56;;;;;;;7.00;1.60;;;;;;;10.53;69.15;102565.19;5052408;28;20323;-66
2021/09/30 05:40:21;;;;;;;7.10;1.55;;;;;;;10.60;68.64;102560.66;5051540;28;20043;-60
2021/09/30 05:42:46;;;;;;;5.85;1.40;;;;;;;10.64;68.39;102555.28;5052457;28;20021;-60
2021/09/30 05:45:15;;;;;;;12.27;2.22;;;;;;;10.63;68.82;102558.84;5051824;28;20108;-60
2021/09/30 05:47:41;;;;;;;8.98;1.85;;;;;;;10.56;69.77;102556.31;5052546;28;20060;-60
2021/09/30 05:50:08;;;;;;;6.57;1.52;;;;;;;10.47;70.29;102552.06;5049278;28;20472;-66
2021/09/30 05:52:36;;;;;;;7.82;1.50;;;;;;;10.40;70.61;102543.34;5052878;28;20111;-66
2021/09/30 05:55:03;;;;;;;7.07;1.58;;;;;;;10.35;70.29;102558.41;5043205;28;20035;-64
2021/09/30 05:57:30;;;;;;;9.88;2.17;;;;;;;10.30;70.99;102557.59;5050555;28;20033;-64
2021/09/30 05:59:58;;;;;;;8.50;2.00;;;;;;;10.27;71.14;102558.53;5052817;28;20509;-66
2021/09/30 06:04:19;;;;;;;14.23;2.10;;;;;;;10.29;71.04;102561.16;5047261;28;20036;-58
2021/09/30 06:11:01;;;;;;;14.13;1.98;;;;;;;10.27;70.55;102568.25;5052478;28;20162;-61
2021/09/30 06:13:35;;;;;;;8.10;2.00;;;;;;;10.28;69.99;102562.03;5052844;28;20021;-66
2021/09/30 06:16:06;;;;;;;9.57;1.92;;;;;;;10.29;69.96;102555.84;5052469;28;20104;-57
2021/09/30 06:18:31;;;;;;;8.93;1.83;;;;;;;10.31;69.53;102562.88;5053192;28;20477;-66
2021/09/30 06:20:56;;;;;;;10.18;1.92;;;;;;;10.38;69.28;102570.75;5046247;28;20121;-65
2021/09/30 06:23:22;;;;;;;9.20;2.33;;;;;;;10.44;68.47;102566.22;5048488;28;20033;-64
2021/09/30 06:25:47;;;;;;;6.97;1.92;;;;;;;10.50;68.83;102565.25;5052707;28;20139;-64
2021/09/30 06:28:13;;;;;;;10.82;2.22;;;;;;;10.52;69.18;102560.78;5053187;28;20029;-66
2021/09/30 06:30:38;;;;;;;9.23;2.03;;;;;;;10.57;69.24;102566.03;5047583;28;20034;-67
2021/09/30 06:33:03;;;;;;;9.73;2.47;;;;;;;10.63;69.17;102561.50;5042421;28;20461;-63
2021/09/30 06:35:29;;;;;;;15.60;2.80;;;;;;;10.72;69.06;102557.81;5049399;28;20048;-60
2021/09/30 06:37:55;;;;;;;9.40;2.28;;;;;;;10.77;69.16;102557.75;5028961;28;20105;-64
2021/09/30 06:40:20;;;;;;;9.52;2.55;;;;;;;10.82;68.73;102561.19;5039431;28;20051;-60
2021/09/30 06:42:45;;;;;;;8.65;2.22;;;;;;;10.95;68.19;102556.53;5041216;28;20088;-58
2021/09/30 06:45:11;;;;;;;9.25;2.53;;;;;;;10.95;68.60;102557.38;5030888;28;20147;-65
2021/09/30 06:47:37;;;;;;;9.90;2.08;;;;;;;11.04;67.87;102558.13;5039328;28;20027;-59
2021/09/30 06:50:08;;;;;;;13.52;2.35;;;;;;;11.08;67.89;102570.41;5043979;28;20486;-59
2021/09/30 06:52:34;;;;;;;8.15;2.55;;;;;;;11.11;67.01;102568.59;5042501;28;20021;-59
2021/09/30 06:54:59;;;;;;;8.15;2.10;;;;;;;11.12;67.60;102564.13;5046981;28;20139;-59
2021/09/30 06:57:28;;;;;;;9.50;2.20;;;;;;;11.15;67.24;102575.56;5045105;28;20029;-53
2021/09/30 06:59:55;;;;;;;9.68;1.90;;;;;;;11.19;67.03;102562.22;5042727;28;20373;-55
2021/09/30 07:02:22;;;;;;;13.80;2.00;;;;;;;11.23;67.22;102572.75;5037031;28;20025;-59
2021/09/30 07:04:48;;;;;;;9.82;2.08;;;;;;;11.24;68.22;102573.63;5045326;28;20128;-58
2021/09/30 07:07:14;;;;;;;9.45;2.20;;;;;;;11.33;68.92;102576.13;5048145;28;20362;-57
2021/09/30 07:09:39;;;;;;;10.68;2.17;;;;;;;11.34;69.12;102566.38;5048531;28;20078;-59
2021/09/30 07:12:05;;;;;;;7.72;2.38;;;;;;;11.40;69.93;102572.41;5048519;28;20079;-60
2021/09/30 07:14:30;;;;;;;9.68;2.13;;;;;;;11.45;70.44;102573.19;5048457;28;20436;-54
2021/09/30 07:16:56;;;;;;;10.45;2.90;;;;;;;11.51;70.92;102580.16;5047541;28;20103;-54
2021/09/30 07:19:22;;;;;;;8.52;2.40;;;;;;;11.56;70.60;102582.69;5048584;28;20121;-65
2021/09/30 07:21:47;;;;;;;12.68;2.60;;;;;;;11.59;70.90;102588.81;5048117;28;20334;-58
2021/09/30 07:24:13;;;;;;;9.18;2.00;;;;;;;11.70;70.95;102572.69;5047107;28;20029;-60
2021/09/30 07:26:40;;;;;;;11.95;2.30;;;;;;;11.76;71.08;102584.94;5048114;28;20040;-60
2021/09/30 07:29:05;;;;;;;9.05;2.20;;;;;;;11.80;71.59;102587.50;5048587;28;20465;-63
2021/09/30 07:31:31;;;;;;;8.23;2.20;;;;;;;11.79;71.82;102590.16;5048297;28;20180;-60
2021/09/30 07:33:56;;;;;;;8.35;2.55;;;;;;;11.82;71.96;102582.16;5047701;28;20349;-58
2021/09/30 07:36:22;;;;;;;9.32;3.00;;;;;;;11.87;72.69;102582.94;5044642;28;20167;-54
2021/09/30 07:38:47;;;;;;;13.98;2.40;;;;;;;11.98;71.87;102589.81;5047570;28;20032;-61
2021/09/30 07:41:13;;;;;;;14.98;2.88;;;;;;;12.04;72.29;102585.22;5046215;28;20021;-55
2021/09/30 07:43:38;;;;;;;11.98;2.95;;;;;;;12.13;73.09;102587.69;5048621;28;20036;-65
2021/09/30 07:46:03;;;;;;;8.50;2.42;;;;;;;12.19;72.72;102593.75;5047535;28;20052;-58
2021/09/30 07:48:29;;;;;;;10.52;3.65;;;;;;;12.27;73.31;102587.34;5047225;28;20021;-59
2021/09/30 07:50:54;;;;;;;7.38;2.53;;;;;;;12.32;72.47;102592.53;5040186;28;20113;-55
2021/09/30 07:53:19;;;;;;;6.63;2.10;;;;;;;12.43;73.01;102587.00;5034388;28;20048;-59
2021/09/30 07:55:45;;;;;;;15.60;2.58;;;;;;;12.60;72.41;102591.88;5046124;28;20041;-60
2021/09/30 07:58:11;;;;;;;8.88;2.40;;;;;;;12.86;72.02;102596.50;5047532;28;20038;-66
2021/09/30 08:00:38;;;;;;;8.95;2.67;;;;;;;13.07;70.58;102588.88;5046789;28;20398;-62
2021/09/30 08:03:04;;;;;;;11.45;2.78;;;;;;;13.27;69.96;102589.19;5045465;28;20953;-60
2021/09/30 08:05:30;;;;;;;12.60;2.58;;;;;;;13.26;68.56;102595.44;5042892;28;20019;-62
2021/09/30 08:07:55;;;;;;;9.85;2.60;;;;;;;13.27;69.64;102602.50;5040113;28;20104;-58
2021/09/30 08:10:20;;;;;;;11.23;2.88;;;;;;;13.01;70.32;102597.88;5045848;28;20084;-63
2021/09/30 08:12:46;;;;;;;16.85;3.60;;;;;;;13.01;70.29;102612.97;5037310;28;20032;-59
2021/09/30 08:15:11;;;;;;;9.88;2.60;;;;;;;13.00;69.77;102603.25;5044985;28;20049;-60
2021/09/30 08:17:37;;;;;;;9.60;2.90;;;;;;;12.95;70.46;102600.69;5047768;28;20481;-59
2021/09/30 08:20:04;;;;;;;9.25;2.60;;;;;;;12.98;70.63;102591.78;5046722;28;20029;-58
2021/09/30 08:22:29;;;;;;;14.80;3.90;;;;;;;13.09;70.45;102595.00;5048090;28;20312;-63
2021/09/30 08:24:54;;;;;;;13.63;3.17;;;;;;;13.18;69.97;102597.41;5047225;28;20035;-56
2021/09/30 08:27:20;;;;;;;12.43;3.72;;;;;;;13.40;68.76;102592.41;5047820;28;20498;-57
2021/09/30 08:29:45;;;;;;;9.07;2.50;;;;;;;13.69;68.08;102584.47;5047456;28;20029;-61
2021/09/30 08:32:10;;;;;;;37.42;8.20;;;;;;;13.86;67.53;102587.53;5048108;28;20044;-60
2021/09/30 08:34:36;;;;;;;14.88;2.70;;;;;;;14.02;67.28;102592.38;5047970;28;20131;-61
2021/09/30 08:37:01;;;;;;;9.57;2.20;;;;;;;14.01;65.68;102585.28;5051292;28;20169;-66
2021/09/30 08:39:26;;;;;;;7.95;1.92;;;;;;;13.92;66.05;102595.28;5039724;28;20080;-60
2021/09/30 08:41:54;;;;;;;9.32;2.20;;;;;;;13.85;64.98;102588.44;5037835;28;20101;-59
2021/09/30 08:44:19;;;;;;;10.50;2.30;;;;;;;13.83;65.06;102581.41;5031208;28;20080;-58
2021/09/30 08:46:44;;;;;;;12.82;2.60;;;;;;;13.83;64.37;102574.28;5037924;28;20045;-58
2021/09/30 08:49:11;;;;;;;13.45;2.60;;;;;;;13.90;64.41;102575.84;5043134;28;20088;-64
2021/09/30 08:51:36;;;;;;;9.75;2.15;;;;;;;13.84;63.37;102583.16;5039396;28;20102;-60
2021/09/30 08:54:02;;;;;;;8.40;2.20;;;;;;;13.81;63.91;102572.59;5039917;28;20051;-58
2021/09/30 08:56:28;;;;;;;9.75;2.17;;;;;;;13.82;64.95;102584.97;5045280;28;20025;-59
2021/09/30 08:58:53;;;;;;;6.75;2.05;;;;;;;13.79;64.75;102585.94;5044337;28;20481;-59
2021/09/30 09:01:18;;;;;;;9.48;2.30;;;;;;;13.67;65.27;102589.88;5048759;28;20136;-66
2021/09/30 09:03:46;;;;;;;8.52;2.45;;;;;;;13.54;64.92;102586.69;5050510;28;20029;-68
2021/09/30 09:06:32;;;;;;;12.27;2.20;;;;;;;13.54;65.92;102589.34;5050273;28;20052;-67
2021/09/30 09:09:23;;;;;;;10.63;2.20;;;;;;;13.58;65.55;102587.44;5050332;28;20346;-66
2021/09/30 09:11:49;;;;;;;8.55;2.10;;;;;;;13.62;64.98;102593.56;5050875;28;20021;-67
2021/09/30 09:14:41;;;;;;;6.57;2.15;;;;;;;13.63;64.49;102582.00;5050652;28;20414;-65
2021/09/30 09:17:15;;;;;;;6.57;1.85;;;;;;;13.65;64.57;102577.53;5046735;28;20148;-66
2021/09/30 09:19:47;;;;;;;10.55;2.28;;;;;;;13.57;63.31;102572.41;5036115;28;20021;-66
2021/09/30 09:22:32;;;;;;;7.28;2.00;;;;;;;13.60;63.29;102573.19;5050250;28;20029;-62
2021/09/30 09:25:03;;;;;;;10.95;2.30;;;;;;;13.65;63.71;102564.22;5040145;28;20115;-65
2021/09/30 09:27:44;;;;;;;10.38;2.30;;;;;;;13.67;63.59;102575.66;5038530;28;20033;-66
2021/09/30 09:30:31;;;;;;;8.13;1.77;;;;;;;13.82;64.03;102569.00;5036363;28;20033;-67
2021/09/30 09:33:13;;;;;;;8.85;2.53;;;;;;;14.21;62.58;102571.34;5047989;28;20037;-67
2021/09/30 09:35:58;;;;;;;9.98;2.63;;;;;;;14.40;60.96;102580.47;5033852;28;20064;-67
2021/09/30 09:38:29;;;;;;;13.82;3.20;;;;;;;14.52;60.56;102563.19;5045424;28;20029;-59
2021/09/30 09:41:05;;;;;;;10.55;2.50;;;;;;;14.74;59.79;102557.16;5049293;28;20045;-58
2021/09/30 09:43:42;;;;;;;16.85;4.15;;;;;;;14.74;59.23;102558.03;5049902;28;20131;-62
2021/09/30 09:46:09;;;;;;;15.15;2.40;;;;;;;14.85;59.71;102562.13;5048735;28;20044;-67
2021/09/30 09:48:35;;;;;;;7.82;1.92;;;;;;;14.95;59.52;102541.31;5049688;28;20051;-66
2021/09/30 09:51:09;;;;;;;9.40;2.22;;;;;;;15.05;58.43;102551.59;5049437;28;20025;-64
2021/09/30 09:53:35;;;;;;;9.65;2.80;;;;;;;15.10;58.57;102559.41;5049556;28;20025;-63
2021/09/30 09:56:17;;;;;;;11.10;2.55;;;;;;;15.23;58.03;102541.19;5048596;28;20429;-61
2021/09/30 09:58:55;;;;;;;12.05;2.90;;;;;;;15.32;57.62;102548.84;5049719;28;20520;-61
2021/09/30 10:01:24;;;;;;;14.75;3.42;;;;;;;15.46;58.30;102553.66;5049164;28;20138;-64
2021/09/30 10:03:59;;;;;;;28.02;6.38;;;;;;;15.39;57.85;102547.66;5049756;28;20044;-67
2021/09/30 10:06:31;;;;;;;10.57;2.50;;;;;;;15.32;57.37;102545.28;5048893;28;20024;-62
2021/09/30 10:08:58;;;;;;;9.32;1.75;;;;;;;15.28;56.91;102552.56;5047240;28;20040;-65
2021/09/30 10:11:25;;;;;;;12.55;2.63;;;;;;;15.22;57.02;102540.28;5043447;28;20048;-60
2021/09/30 10:13:51;;;;;;;6.68;1.80;;;;;;;15.05;57.24;102551.59;5049048;28;20380;-63
2021/09/30 10:16:27;;;;;;;9.23;2.47;;;;;;;14.96;57.15;102546.59;5048779;28;20017;-62
2021/09/30 10:18:57;;;;;;;7.75;2.00;;;;;;;14.98;58.19;102542.06;5049672;28;20079;-63
2021/09/30 10:21:24;;;;;;;10.90;2.50;;;;;;;14.85;58.72;102541.63;5049549;28;20115;-63
2021/09/30 10:23:52;;;;;;;6.93;1.90;;;;;;;14.95;57.73;102533.28;5048906;28;20037;-66
2021/09/30 10:26:25;;;;;;;9.35;2.10;;;;;;;14.80;58.85;102543.59;5048863;28;20033;-61
2021/09/30 10:28:51;;;;;;;13.10;3.47;;;;;;;14.75;58.16;102549.09;5048664;28;20058;-60
2021/09/30 10:31:25;;;;;;;5.40;1.83;;;;;;;14.65;58.48;102541.47;5047958;28;20108;-59
2021/09/30 10:33:53;;;;;;;6.47;1.80;;;;;;;14.60;58.84;102528.25;5048487;28;20094;-65
2021/09/30 10:36:39;;;;;;;11.23;2.40;;;;;;;14.65;59.67;102528.13;5045744;28;20064;-67
2021/09/30 10:39:29;;;;;;;10.70;2.97;;;;;;;14.69;58.88;102525.31;5044687;28;20041;-64
2021/09/30 10:41:59;;;;;;;10.30;2.58;;;;;;;14.81;59.08;102536.44;5031336;28;20048;-62
2021/09/30 10:44:30;;;;;;;10.82;2.20;;;;;;;14.89;58.31;102537.94;5047431;28;20032;-61
2021/09/30 10:46:58;;;;;;;7.22;2.15;;;;;;;14.97;58.74;102537.66;5039160;28;20510;-59
2021/09/30 10:49:42;;;;;;;8.60;2.55;;;;;;;15.01;58.00;102535.75;5043389;28;20024;-63
2021/09/30 10:52:23;;;;;;;7.80;2.15;;;;;;;14.80;58.76;102529.41;5038996;28;20045;-65
2021/09/30 10:55:02;;;;;;;6.78;1.58;;;;;;;14.83;58.69;102543.47;5048292;28;20061;-65
2021/09/30 10:57:27;;;;;;;7.68;1.65;;;;;;;14.71;59.22;102535.94;5048662;28;20338;-61
2021/09/30 10:59:52;;;;;;;8.07;1.90;;;;;;;14.88;58.29;102535.31;5047345;28;20029;-59
2021/09/30 11:02:18;;;;;;;9.68;2.75;;;;;;;14.84;58.46;102526.56;5047814;28;20309;-65
2021/09/30 11:05:05;;;;;;;9.85;2.58;;;;;;;14.65;58.32;102531.66;5047710;28;20033;-63
2021/09/30 11:07:31;;;;;;;14.13;3.60;;;;;;;14.43;58.09;102532.38;5046104;28;20036;-62
2021/09/30 11:10:25;;;;;;;8.82;2.03;;;;;;;14.39;58.49;102536.06;5047862;28;20357;-60
2021/09/30 11:13:18;;;;;;;7.82;1.55;;;;;;;14.30;58.98;102536.38;5043614;28;20032;-66
2021/09/30 11:16:00;;;;;;;6.22;1.98;;;;;;;14.15;58.94;102531.56;5047656;28;20465;-60
2021/09/30 11:18:51;;;;;;;11.60;2.85;;;;;;;14.20;59.13;102532.28;5047649;28;20106;-62
2021/09/30 11:21:32;;;;;;;16.20;2.70;;;;;;;14.12;59.96;102521.00;5047941;28;20029;-60
2021/09/30 11:24:19;;;;;;;8.65;2.22;;;;;;;14.09;60.17;102525.53;5046858;28;20037;-60
2021/09/30 11:26:54;;;;;;;7.13;1.60;;;;;;;14.05;60.49;102529.22;5048306;28;20033;-61
2021/09/30 11:29:19;;;;;;;21.08;4.88;;;;;;;14.13;61.22;102520.09;5047425;28;20029;-63
2021/09/30 11:31:45;;;;;;;8.02;1.90;;;;;;;14.16;60.78;102518.19;5047444;28;20437;-62
2021/09/30 11:34:18;;;;;;;6.80;1.90;;;;;;;14.02;61.23;102529.28;5047888;28;20154;-62
2021/09/30 11:36:43;;;;;;;6.32;1.70;;;;;;;14.02;61.22;102526.63;5047670;28;20021;-56
2021/09/30 11:39:09;;;;;;;8.60;2.03;;;;;;;13.97;61.45;102523.25;5046304;28;20430;-53
2021/09/30 11:41:37;;;;;;;6.35;1.70;;;;;;;13.99;60.79;102525.84;5047536;28;20101;-61
2021/09/30 11:44:04;;;;;;;6.88;2.20;;;;;;;14.04;61.38;102519.47;5032555;28;20365;-64
2021/09/30 11:46:32;;;;;;;5.95;1.88;;;;;;;13.97;61.16;102509.06;5040495;28;20037;-61
2021/09/30 11:49:03;;;;;;;4.65;1.90;;;;;;;14.11;61.98;102511.28;5037643;28;20025;-59
2021/09/30 11:51:48;;;;;;;12.70;2.15;;;;;;;14.09;60.31;102513.97;5043398;28;20333;-58
2021/09/30 11:54:16;;;;;;;8.75;2.17;;;;;;;14.04;60.75;102508.81;5046488;28;20063;-61
2021/09/30 11:56:50;;;;;;;4.20;1.40;;;;;;;13.98;60.30;102500.13;5031553;28;20102;-61
2021/09/30 11:59:18;;;;;;;9.32;1.77;;;;;;;14.00;60.35;102501.84;5046027;28;20033;-61
2021/09/30 12:01:46;;;;;;;4.63;1.38;;;;;;;14.15;59.19;102504.94;5046379;28;20107;-59
2021/09/30 12:04:42;;;;;;;6.72;1.42;;;;;;;14.24;57.59;102500.13;5045094;28;20041;-58
2021/09/30 12:07:33;;;;;;;5.72;1.77;;;;;;;14.27;57.68;102501.84;5045659;28;20049;-58
2021/09/30 12:10:00;;;;;;;8.27;1.70;;;;;;;14.22;57.00;102485.13;5040455;28;20066;-57
2021/09/30 12:12:30;;;;;;;4.75;1.48;;;;;;;14.17;57.21;102482.63;5043097;28;20044;-59
2021/09/30 12:14:57;;;;;;;5.47;1.60;;;;;;;14.17;57.89;102482.63;5049819;28;20057;-58
2021/09/30 12:17:23;;;;;;;7.53;1.80;;;;;;;14.15;57.86;102496.94;5051485;28;20120;-59
2021/09/30 12:19:56;;;;;;;7.20;1.75;;;;;;;14.15;58.03;102479.16;5050295;28;20505;-62
2021/09/30 12:22:24;;;;;;;5.82;1.85;;;;;;;14.08;57.96;102480.28;5050710;28;20128;-59
2021/09/30 12:25:04;;;;;;;5.28;1.92;;;;;;;14.10;58.30;102475.78;5050751;28;20039;-58
2021/09/30 12:27:36;;;;;;;4.93;1.50;;;;;;;14.25;58.52;102469.06;5050385;28;20342;-59
2021/09/30 12:30:26;;;;;;;8.77;2.20;;;;;;;14.39;57.70;102476.59;5049698;28;20047;-55
2021/09/30 12:32:59;;;;;;;8.13;2.30;;;;;;;14.40;57.50;102470.34;5050577;28;20037;-58
2021/09/30 12:35:28;;;;;;;10.43;2.45;;;;;;;14.43;57.15;102465.75;5048031;28;20531;-57
2021/09/30 12:37:57;;;;;;;7.05;1.73;;;;;;;14.46;57.16;102455.91;5050157;28;20033;-56
2021/09/30 12:40:27;;;;;;;6.30;1.85;;;;;;;14.63;57.42;102448.19;5037142;28;20112;-59
2021/09/30 12:43:14;;;;;;;7.57;1.50;;;;;;;14.77;56.05;102458.38;5043811;28;20034;-59
2021/09/30 12:46:07;;;;;;;6.32;1.95;;;;;;;14.79;56.83;102437.84;5049660;28;20107;-59
2021/09/30 12:48:35;;;;;;;5.70;1.77;;;;;;;15.02;56.70;102428.13;5049572;28;20105;-60
2021/09/30 12:51:06;;;;;;;6.97;2.03;;;;;;;14.95;57.51;102429.25;5050595;28;20033;-60
2021/09/30 12:53:40;;;;;;;6.72;1.85;;;;;;;14.96;57.26;102437.22;5050735;28;20113;-59
2021/09/30 12:56:08;;;;;;;10.07;2.25;;;;;;;15.03;57.30;102416.53;5043886;28;20108;-58
2021/09/30 12:58:41;;;;;;;8.57;2.20;;;;;;;15.00;58.39;102422.84;5048852;28;20033;-56
2021/09/30 13:01:33;;;;;;;11.52;2.72;;;;;;;15.08;58.54;102414.53;5047438;28;20053;-59
2021/09/30 13:04:16;;;;;;;;;;;;;;;15.11;58.25;102422.41;5039831;28;20131;-58
2021/09/30 13:07:03;;;;;;;7.40;2.20;;;;;;;15.01;57.88;102416.59;5050118;28;19925;-56
2021/09/30 13:09:34;;;;;;;11.02;2.58;;;;;;;14.99;59.16;102410.44;5045755;28;20085;-61
2021/09/30 13:12:10;;;;;;;9.90;2.35;;;;;;;14.97;57.94;102398.06;5049306;28;20055;-59
2021/09/30 13:14:43;;;;;;;8.15;2.53;;;;;;;15.01;58.45;102397.03;5050331;28;20017;-59
2021/09/30 13:17:08;;;;;;;12.30;2.50;;;;;;;15.11;58.15;102395.72;5050437;28;20035;-60
2021/09/30 13:19:46;;;;;;;11.03;2.30;;;;;;;15.07;58.17;102386.13;5049777;28;20028;-58
2021/09/30 13:22:35;;;;;;;8.15;2.00;;;;;;;14.86;59.00;102382.47;5034696;28;20306;-59
2021/09/30 13:25:05;;;;;;;11.85;2.47;;;;;;;14.85;60.25;102381.63;5050263;28;20029;-58
2021/09/30 13:27:36;;;;;;;8.13;2.25;;;;;;;14.86;59.98;102387.81;5049721;28;20032;-61
2021/09/30 13:30:07;;;;;;;9.38;2.20;;;;;;;14.70;60.68;102371.53;5044626;28;20025;-59
2021/09/30 13:32:33;;;;;;;7.00;1.90;;;;;;;14.61;61.46;102372.72;5038028;28;20120;-60
2021/09/30 13:34:59;;;;;;;14.30;2.65;;;;;;;14.54;61.40;102372.06;5044497;28;20041;-60
2021/09/30 13:37:26;;;;;;;9.68;2.60;;;;;;;14.54;61.88;102368.53;5049560;28;20025;-57
2021/09/30 13:39:56;;;;;;;11.43;3.10;;;;;;;14.62;61.60;102366.47;5040346;28;20029;-59
2021/09/30 13:42:25;;;;;;;12.98;3.17;;;;;;;14.72;61.91;102359.03;5046963;28;20124;-60
2021/09/30 13:44:51;;;;;;;10.73;2.40;;;;;;;14.71;61.90;102362.63;5044769;28;20025;-59
2021/09/30 13:47:16;;;;;;;10.50;2.38;;;;;;;14.55;61.88;102352.50;5048274;28;20508;-61
2021/09/30 13:49:42;;;;;;;10.50;2.50;;;;;;;14.38;62.96;102349.56;5032875;28;20141;-62
2021/09/30 13:52:07;;;;;;;13.48;2.50;;;;;;;14.44;62.91;102336.03;5048102;28;20497;-60
2021/09/30 13:54:33;;;;;;;7.03;1.98;;;;;;;14.43;63.18;102328.94;5049524;28;20388;-55
2021/09/30 13:56:59;;;;;;;10.82;2.38;;;;;;;14.43;63.27;102334.28;5048632;28;20385;-58
2021/09/30 13:59:24;;;;;;;13.07;2.35;;;;;;;14.46;62.70;102330.63;5049827;28;20036;-57
2021/09/30 14:01:51;;;;;;;10.13;2.80;;;;;;;14.30;62.66;102330.34;5045920;28;20107;-60
2021/09/30 14:04:16;;;;;;;11.38;2.47;;;;;;;14.33;62.23;102331.06;5042592;28;20025;-56
2021/09/30 14:06:42;;;;;;;6.93;2.30;;;;;;;14.41;62.50;102322.78;5043674;28;20036;-58
2021/09/30 14:09:07;;;;;;;12.32;2.25;;;;;;;14.39;62.58;102333.53;5047834;28;20093;-55
2021/09/30 14:11:32;;;;;;;8.57;2.47;;;;;;;14.42;62.15;102314.78;5049775;28;20494;-60
2021/09/30 14:13:58;;;;;;;8.48;2.00;;;;;;;14.49;61.43;102326.06;5048889;28;20120;-58
2021/09/30 14:16:24;;;;;;;10.25;2.80;;;;;;;14.49;61.50;102323.41;5047994;28;20041;-57
2021/09/30 14:18:49;;;;;;;8.82;2.33;;;;;;;14.46;61.13;102314.63;5049915;28;20104;-58